createdAt,value
2022-09-28T00:00:31.793Z,98.44
2022-09-28T00:01:31.835Z,98.60
2022-09-28T00:02:31.968Z,98.51
2022-09-28T00:03:31.759Z,98.71
2022-09-28T00:04:31.743Z,98.91
2022-09-28T00:05:31.730Z,98.60
2022-09-28T00:07:31.705Z,98.71
2022-09-28T00:08:31.702Z,99.27
2022-09-28T00:09:31.678Z,99.57
2022-09-28T00:10:31.667Z,99.78
2022-09-28T00:11:31.679Z,99.98
2022-09-28T00:12:31.641Z,99.98
2022-09-28T00:13:31.642Z,99.99
2022-09-28T00:14:31.616Z,99.99
2022-09-28T00:15:31.604Z,99.99
2022-09-28T00:16:31.689Z,99.99
2022-09-28T00:18:31.567Z,99.99
2022-09-28T00:19:31.554Z,99.99
2022-09-28T00:20:31.542Z,99.99
2022-09-28T00:21:31.527Z,99.99
2022-09-28T00:22:31.519Z,99.99
2022-09-28T00:23:31.507Z,99.99
2022-09-28T00:24:31.490Z,99.99
2022-09-28T00:25:31.477Z,99.99
2022-09-28T00:26:31.467Z,99.99
2022-09-28T00:27:31.481Z,99.99
2022-09-28T00:29:31.428Z,99.99
2022-09-28T00:30:31.413Z,99.99
2022-09-28T00:31:31.457Z,99.99
2022-09-28T00:32:31.392Z,99.99
2022-09-28T00:33:31.374Z,99.99
2022-09-28T00:34:31.362Z,99.99
2022-09-28T00:35:31.351Z,99.99
2022-09-28T00:36:31.336Z,99.99
2022-09-28T00:37:31.323Z,99.99
2022-09-28T00:38:31.311Z,99.99
2022-09-28T00:40:31.372Z,99.99
2022-09-28T00:41:31.279Z,99.99
2022-09-28T00:42:31.259Z,99.99
2022-09-28T00:43:31.270Z,99.99
2022-09-28T00:44:31.234Z,99.99
2022-09-28T00:45:31.264Z,99.99
2022-09-28T00:46:31.207Z,99.99
2022-09-28T00:47:31.210Z,99.99
2022-09-28T00:48:31.185Z,99.84
2022-09-28T00:49:31.169Z,99.73
2022-09-28T00:51:31.150Z,99.53
2022-09-28T00:52:31.132Z,99.53
2022-09-28T00:53:31.118Z,99.43
2022-09-28T00:54:31.106Z,99.32
2022-09-28T00:55:31.091Z,99.43
2022-09-28T00:56:31.082Z,99.43
2022-09-28T00:57:31.066Z,99.53
2022-09-28T00:58:31.056Z,99.73
2022-09-28T00:59:31.064Z,99.63
2022-09-28T01:00:31.087Z,99.84
2022-09-28T01:02:31.068Z,99.99
2022-09-28T01:03:30.990Z,99.99
2022-09-28T01:04:30.980Z,99.99
2022-09-28T01:05:30.965Z,99.99
2022-09-28T01:06:30.960Z,99.99
2022-09-28T01:07:30.940Z,99.99
2022-09-28T01:08:30.929Z,99.99
2022-09-28T01:09:30.914Z,99.99
2022-09-28T01:10:30.904Z,99.99
2022-09-28T01:11:30.890Z,99.99
2022-09-28T01:13:30.864Z,99.99
2022-09-28T01:14:30.853Z,99.99
2022-09-28T01:15:30.873Z,99.99
2022-09-28T01:16:30.900Z,99.99
2022-09-28T01:17:30.815Z,99.99
2022-09-28T01:18:30.806Z,99.99
2022-09-28T01:19:30.789Z,99.99
2022-09-28T01:20:30.778Z,99.99
2022-09-28T01:21:30.763Z,99.99
2022-09-28T01:22:30.751Z,99.99
2022-09-28T01:24:30.725Z,99.99
2022-09-28T01:25:30.713Z,99.99
2022-09-28T01:26:30.700Z,99.99
2022-09-28T01:27:30.687Z,99.99
2022-09-28T01:28:30.677Z,99.69
2022-09-28T01:29:30.662Z,99.59
2022-09-28T01:30:30.650Z,99.48
2022-09-28T01:31:30.735Z,99.48
2022-09-28T01:32:30.626Z,99.59
2022-09-28T01:33:30.611Z,99.63
2022-09-28T01:35:30.586Z,99.99
2022-09-28T01:36:30.575Z,99.99
2022-09-28T01:37:30.560Z,99.99
2022-09-28T01:38:30.548Z,99.89
2022-09-28T01:39:30.535Z,99.89
2022-09-28T01:40:30.589Z,99.99
2022-09-28T01:41:30.508Z,99.99
2022-09-28T01:42:30.502Z,99.89
2022-09-28T01:43:30.483Z,99.89
2022-09-28T01:44:30.473Z,99.99
2022-09-28T01:46:30.446Z,99.99
2022-09-28T01:47:30.457Z,99.99
2022-09-28T01:48:30.422Z,99.99
2022-09-28T01:49:30.410Z,99.99
2022-09-28T01:50:30.397Z,99.99
2022-09-28T01:51:30.382Z,99.99
2022-09-28T01:52:30.383Z,99.99
2022-09-28T01:53:30.360Z,99.99
2022-09-28T01:54:30.346Z,99.99
2022-09-28T01:55:30.334Z,99.99
2022-09-28T01:57:30.308Z,99.99
2022-09-28T01:58:30.295Z,99.99
2022-09-28T01:59:30.286Z,99.99
2022-09-28T02:00:30.326Z,99.99
2022-09-28T02:01:30.257Z,99.99
2022-09-28T02:02:30.340Z,99.99
2022-09-28T02:03:30.257Z,99.99
2022-09-28T02:04:30.222Z,99.99
2022-09-28T02:05:30.205Z,99.99
2022-09-28T02:06:30.194Z,99.99
2022-09-28T02:08:30.169Z,99.99
2022-09-28T02:09:33.706Z,99.99
2022-09-28T02:10:30.144Z,99.99
2022-09-28T02:11:30.129Z,99.99
2022-09-28T02:12:30.119Z,99.99
2022-09-28T02:13:30.103Z,99.99
2022-09-28T02:14:30.096Z,99.99
2022-09-28T02:15:30.077Z,99.99
2022-09-28T02:16:30.183Z,99.99
2022-09-28T02:17:30.052Z,99.99
2022-09-28T02:19:30.055Z,99.99
2022-09-28T02:20:30.017Z,99.99
2022-09-28T02:21:30.002Z,99.99
2022-09-28T02:22:29.990Z,99.99
2022-09-28T02:23:29.978Z,99.99
2022-09-28T02:24:29.966Z,99.99
2022-09-28T02:25:29.950Z,99.99
2022-09-28T02:26:29.940Z,99.99
2022-09-28T02:27:29.926Z,99.99
2022-09-28T02:28:29.916Z,99.99
2022-09-28T02:30:29.889Z,99.99
2022-09-28T02:31:29.911Z,99.99
2022-09-28T02:32:29.865Z,99.99
2022-09-28T02:33:29.852Z,99.99
2022-09-28T02:34:29.839Z,99.99
2022-09-28T02:35:29.850Z,99.99
2022-09-28T02:36:29.821Z,99.99
2022-09-28T02:37:29.799Z,99.99
2022-09-28T02:38:29.788Z,99.99
2022-09-28T02:39:29.774Z,99.99
2022-09-28T02:41:29.750Z,99.99
2022-09-28T02:42:29.737Z,99.99
2022-09-28T02:43:29.723Z,99.99
2022-09-28T02:44:29.712Z,99.99
2022-09-28T02:45:29.714Z,99.89
2022-09-28T02:46:29.690Z,99.99
2022-09-28T02:47:29.672Z,99.99
2022-09-28T02:48:43.042Z,99.89
2022-09-28T02:49:29.646Z,99.99
2022-09-28T02:50:29.635Z,99.99
2022-09-28T02:52:29.609Z,99.89
2022-09-28T02:53:29.597Z,99.79
2022-09-28T02:54:29.584Z,99.69
2022-09-28T02:55:29.575Z,99.69
2022-09-28T02:56:29.557Z,99.89
2022-09-28T02:57:29.547Z,99.89
2022-09-28T02:58:29.531Z,99.99
2022-09-28T02:59:29.520Z,99.99
2022-09-28T03:00:29.506Z,99.99
2022-09-28T03:01:29.498Z,99.99
2022-09-28T03:03:29.479Z,99.99
2022-09-28T03:04:29.467Z,99.99
2022-09-28T03:05:29.462Z,99.99
2022-09-28T03:06:29.429Z,99.99
2022-09-28T03:07:29.442Z,99.99
2022-09-28T03:08:29.404Z,99.99
2022-09-28T03:09:29.393Z,99.99
2022-09-28T03:10:29.379Z,99.99
2022-09-28T03:11:29.368Z,99.99
2022-09-28T03:12:29.353Z,99.99
2022-09-28T03:14:29.330Z,99.99
2022-09-28T03:15:29.317Z,99.99
2022-09-28T03:16:29.352Z,99.99
2022-09-28T03:17:29.291Z,99.99
2022-09-28T03:18:29.278Z,99.99
2022-09-28T03:19:29.269Z,99.99
2022-09-28T03:20:29.252Z,99.99
2022-09-28T03:21:29.241Z,99.99
2022-09-28T03:22:29.229Z,99.99
2022-09-28T03:23:29.240Z,99.99
2022-09-28T03:25:29.194Z,99.99
2022-09-28T03:26:29.176Z,99.99
2022-09-28T03:27:29.166Z,99.99
2022-09-28T03:28:29.149Z,99.99
2022-09-28T03:29:29.141Z,99.99
2022-09-28T03:30:29.123Z,99.99
2022-09-28T03:31:29.168Z,99.99
2022-09-28T03:32:29.098Z,99.94
2022-09-28T03:33:29.087Z,99.63
2022-09-28T03:34:29.072Z,99.32
2022-09-28T03:36:29.047Z,99.32
2022-09-28T03:37:29.034Z,99.22
2022-09-28T03:38:29.021Z,99.02
2022-09-28T03:39:29.032Z,99.02
2022-09-28T03:40:29.088Z,99.12
2022-09-28T03:41:28.984Z,99.12
2022-09-28T03:42:28.968Z,99.32
2022-09-28T03:43:28.957Z,99.22
2022-09-28T03:44:28.943Z,99.43
2022-09-28T03:45:28.989Z,99.22
2022-09-28T03:47:28.907Z,99.32
2022-09-28T03:48:32.453Z,99.32
2022-09-28T03:49:28.880Z,99.22
2022-09-28T03:50:28.865Z,99.32
2022-09-28T03:51:28.856Z,99.32
2022-09-28T03:52:28.839Z,99.32
2022-09-28T03:53:28.827Z,99.22
2022-09-28T03:54:28.814Z,99.22
2022-09-28T03:55:28.828Z,99.22
2022-09-28T03:56:28.789Z,99.02
2022-09-28T03:58:28.762Z,98.91
2022-09-28T03:59:28.753Z,98.91
2022-09-28T04:00:28.736Z,98.91
2022-09-28T04:01:28.755Z,99.12
2022-09-28T04:02:28.777Z,99.12
2022-09-28T04:03:28.697Z,99.02
2022-09-28T04:04:28.682Z,99.32
2022-09-28T04:05:28.672Z,99.32
2022-09-28T04:06:28.655Z,99.02
2022-09-28T04:07:31.088Z,98.55
2022-09-28T04:09:28.618Z,98.04
2022-09-28T04:10:28.602Z,97.72
2022-09-28T04:11:38.495Z,97.83
2022-09-28T04:12:30.574Z,97.93
2022-09-28T04:13:28.571Z,98.04
2022-09-28T04:14:28.550Z,97.63
2022-09-28T04:15:28.538Z,97.72
2022-09-28T04:16:28.577Z,97.83
2022-09-28T04:17:28.516Z,97.72
2022-09-28T04:18:28.496Z,97.72
2022-09-28T04:20:28.469Z,97.83
2022-09-28T04:21:28.459Z,97.72
2022-09-28T04:22:28.449Z,98.04
2022-09-28T04:23:28.443Z,98.04
2022-09-28T04:24:28.420Z,98.14
2022-09-28T04:25:28.407Z,98.14
2022-09-28T04:26:28.403Z,98.14
2022-09-28T04:27:28.407Z,97.93
2022-09-28T04:28:28.368Z,97.93
2022-09-28T04:29:28.357Z,97.72
2022-09-28T04:31:28.378Z,98.08
2022-09-28T04:32:28.318Z,97.88
2022-09-28T04:33:28.306Z,98.18
2022-09-28T04:34:31.855Z,98.18
2022-09-28T04:35:28.279Z,98.29
2022-09-28T04:36:28.267Z,98.29
2022-09-28T04:37:28.254Z,98.18
2022-09-28T04:38:51.355Z,98.29
2022-09-28T04:39:28.229Z,98.43
2022-09-28T04:40:28.262Z,98.54
2022-09-28T04:42:28.188Z,98.95
2022-09-28T04:43:28.202Z,99.15
2022-09-28T04:44:28.164Z,99.15
2022-09-28T04:45:28.161Z,99.15
2022-09-28T04:46:28.137Z,98.85
2022-09-28T04:47:28.125Z,98.64
2022-09-28T04:48:28.112Z,98.54
2022-09-28T04:49:28.101Z,98.43
2022-09-28T04:50:28.084Z,98.43
2022-09-28T04:51:28.075Z,98.48
2022-09-28T04:53:28.050Z,98.27
2022-09-28T04:54:28.038Z,98.27
2022-09-28T04:55:28.022Z,98.27
2022-09-28T04:56:28.010Z,98.17
2022-09-28T04:57:27.999Z,98.17
2022-09-28T04:58:27.984Z,98.17
2022-09-28T04:59:27.996Z,98.17
2022-09-28T05:00:27.956Z,98.17
2022-09-28T05:01:28.051Z,98.07
2022-09-28T05:02:28.009Z,98.17
2022-09-28T05:04:27.904Z,98.17
2022-09-28T05:05:27.892Z,97.97
2022-09-28T05:06:27.879Z,97.97
2022-09-28T05:07:27.867Z,97.97
2022-09-28T05:08:27.852Z,97.97
2022-09-28T05:09:27.839Z,98.07
2022-09-28T05:10:27.826Z,98.17
2022-09-28T05:11:27.815Z,98.01
2022-09-28T05:12:27.800Z,98.01
2022-09-28T05:13:27.788Z,98.12
2022-09-28T05:15:27.784Z,98.22
2022-09-28T05:16:27.805Z,98.22
2022-09-28T05:17:27.737Z,98.22
2022-09-28T05:18:27.723Z,97.80
2022-09-28T05:19:27.711Z,98.01
2022-09-28T05:20:27.695Z,98.32
2022-09-28T05:21:27.685Z,98.57
2022-09-28T05:22:27.668Z,98.63
2022-09-28T05:23:27.658Z,98.47
2022-09-28T05:24:27.644Z,98.63
2022-09-28T05:26:27.626Z,98.32
2022-09-28T05:27:27.605Z,98.68
2022-09-28T05:28:27.593Z,98.98
2022-09-28T05:29:31.938Z,99.09
2022-09-28T05:30:27.567Z,99.09
2022-09-28T05:31:27.642Z,99.09
2022-09-28T05:32:27.540Z,99.09
2022-09-28T05:33:27.530Z,99.09
2022-09-28T05:34:27.517Z,99.29
2022-09-28T05:35:27.503Z,99.40
2022-09-28T05:37:27.477Z,99.56
2022-09-28T05:38:27.462Z,99.45
2022-09-28T05:39:27.450Z,99.56
2022-09-28T05:40:27.457Z,99.45
2022-09-28T05:41:27.424Z,99.70
2022-09-28T05:42:27.409Z,99.91
2022-09-28T05:43:27.400Z,99.99
2022-09-28T05:44:27.383Z,99.99
2022-09-28T05:45:27.447Z,99.99
2022-09-28T05:46:27.415Z,99.99
2022-09-28T05:48:27.333Z,99.99
2022-09-28T05:49:27.321Z,99.99
2022-09-28T05:50:27.307Z,99.99
2022-09-28T05:51:27.295Z,99.99
2022-09-28T05:52:27.282Z,99.99
2022-09-28T05:53:27.272Z,99.99
2022-09-28T05:54:27.257Z,99.99
2022-09-28T05:55:27.270Z,99.99
2022-09-28T05:56:27.231Z,99.99
2022-09-28T05:57:27.220Z,99.99
2022-09-28T05:59:27.194Z,99.99
2022-09-28T06:00:27.179Z,99.99
2022-09-28T06:01:27.257Z,99.99
2022-09-28T06:02:27.252Z,99.99
2022-09-28T06:03:27.167Z,99.99
2022-09-28T06:04:27.129Z,99.99
2022-09-28T06:05:27.120Z,99.96
2022-09-28T06:06:27.104Z,99.86
2022-09-28T06:07:27.094Z,99.66
2022-09-28T06:08:27.080Z,99.31
2022-09-28T06:10:27.057Z,98.89
2022-09-28T06:11:27.059Z,98.59
2022-09-28T06:12:27.027Z,98.48
2022-09-28T06:13:27.019Z,98.38
2022-09-28T06:14:27.001Z,97.86
2022-09-28T06:15:26.990Z,97.20
2022-09-28T06:16:27.016Z,96.80
2022-09-28T06:17:26.964Z,95.67
2022-09-28T06:18:26.950Z,94.85
2022-09-28T06:19:26.960Z,94.75
2022-09-28T06:21:26.913Z,94.79
2022-09-28T06:22:26.895Z,95.41
2022-09-28T06:23:26.886Z,95.45
2022-09-28T06:24:26.867Z,95.77
2022-09-28T06:25:26.857Z,95.97
2022-09-28T06:26:26.841Z,96.17
2022-09-28T06:27:26.828Z,96.28
2022-09-28T06:28:26.814Z,96.38
2022-09-28T06:29:26.803Z,96.58
2022-09-28T06:30:26.877Z,96.44
2022-09-28T06:32:26.761Z,95.82
2022-09-28T06:33:26.750Z,95.16
2022-09-28T06:34:26.733Z,94.85
2022-09-28T06:35:26.749Z,94.85
2022-09-28T06:36:26.705Z,94.79
2022-09-28T06:37:26.694Z,95.20
2022-09-28T06:38:26.683Z,95.41
2022-09-28T06:39:26.668Z,95.37
2022-09-28T06:40:26.727Z,95.41
2022-09-28T06:41:26.642Z,95.67
2022-09-28T06:43:28.929Z,95.61
2022-09-28T06:44:26.608Z,95.52
2022-09-28T06:45:26.588Z,96.08
2022-09-28T06:46:26.653Z,96.19
2022-09-28T06:47:26.562Z,96.08
2022-09-28T06:48:26.544Z,95.67
2022-09-28T06:49:26.531Z,95.63
2022-09-28T06:50:26.517Z,95.01
2022-09-28T06:51:26.528Z,95.12
2022-09-28T06:52:26.489Z,94.40
2022-09-28T06:54:26.464Z,93.74
2022-09-28T06:55:26.451Z,93.23
2022-09-28T06:56:30.629Z,92.27
2022-09-28T06:57:26.426Z,91.08
2022-09-28T06:58:26.410Z,86.63
2022-09-28T06:59:26.402Z,84.58
2022-09-28T07:00:26.507Z,84.63
2022-09-28T07:01:26.471Z,85.38
2022-09-28T07:02:26.411Z,86.07
2022-09-28T07:03:26.347Z,87.59
2022-09-28T07:05:26.320Z,90.19
2022-09-28T07:06:26.306Z,91.00
2022-09-28T07:07:26.314Z,90.08
2022-09-28T07:08:26.283Z,91.11
2022-09-28T07:09:32.633Z,90.84
2022-09-28T07:10:26.340Z,90.64
2022-09-28T07:11:26.244Z,91.35
2022-09-28T07:12:26.234Z,91.19
2022-09-28T07:13:51.644Z,91.50
2022-09-28T07:15:26.187Z,92.52
2022-09-28T07:16:31.751Z,92.52
2022-09-28T07:17:28.220Z,92.38
2022-09-28T07:18:26.233Z,92.07
2022-09-28T07:19:26.134Z,91.91
2022-09-28T07:20:26.192Z,91.81
2022-09-28T07:21:30.101Z,91.60
2022-09-28T07:22:38.191Z,91.81
2022-09-28T07:23:26.105Z,91.71
2022-09-28T07:24:26.072Z,92.12
2022-09-28T07:26:26.044Z,92.22
2022-09-28T07:27:28.958Z,92.22
2022-09-28T07:28:26.039Z,92.63
2022-09-28T07:29:26.003Z,92.42
2022-09-28T07:30:26.103Z,93.04
2022-09-28T07:31:25.976Z,92.89
2022-09-28T07:32:26.033Z,92.69
2022-09-28T07:33:25.951Z,92.38
2022-09-28T07:34:25.947Z,92.85
2022-09-28T07:35:25.924Z,90.53
2022-09-28T07:37:25.897Z,91.31
2022-09-28T07:38:25.885Z,91.11
2022-09-28T07:39:25.922Z,90.80
2022-09-28T07:40:25.969Z,91.41
2022-09-28T07:41:25.845Z,90.70
2022-09-28T07:42:25.837Z,89.88
2022-09-28T07:43:25.824Z,89.78
2022-09-28T07:44:25.807Z,90.43
2022-09-28T07:45:25.794Z,90.60
2022-09-28T07:46:25.876Z,90.49
2022-09-28T07:48:25.754Z,90.43
2022-09-28T07:49:25.739Z,89.98
2022-09-28T07:50:25.729Z,90.29
2022-09-28T07:51:25.712Z,89.81
2022-09-28T07:52:25.702Z,86.30
2022-09-28T07:53:25.687Z,85.89
2022-09-28T07:54:25.676Z,85.04
2022-09-28T07:55:25.685Z,83.79
2022-09-28T07:56:25.648Z,83.39
2022-09-28T07:57:25.646Z,78.22
2022-09-28T07:59:25.608Z,73.73
2022-09-28T08:00:25.596Z,71.39
2022-09-28T08:01:25.609Z,71.60
2022-09-28T08:02:25.596Z,72.85
2022-09-28T08:03:25.556Z,68.46
2022-09-28T08:04:25.549Z,66.64
2022-09-28T08:05:25.530Z,67.79
2022-09-28T08:06:25.518Z,70.14
2022-09-28T08:07:25.504Z,70.65
2022-09-28T08:08:25.512Z,68.86
2022-09-28T08:10:25.465Z,73.42
2022-09-28T08:11:25.473Z,69.00
2022-09-28T08:12:25.440Z,67.14
2022-09-28T08:13:27.140Z,72.71
2022-09-28T08:14:25.414Z,72.03
2022-09-28T08:15:25.401Z,72.21
2022-09-28T08:16:25.549Z,70.38
2022-09-28T08:17:25.375Z,70.14
2022-09-28T08:18:25.363Z,74.17
2022-09-28T08:19:25.350Z,77.70
2022-09-28T08:21:25.321Z,74.54
2022-09-28T08:22:25.312Z,77.50
2022-09-28T08:23:25.299Z,76.98
2022-09-28T08:24:25.285Z,76.65
2022-09-28T08:25:25.269Z,78.01
2022-09-28T08:26:25.258Z,79.07
2022-09-28T08:27:25.268Z,79.10
2022-09-28T08:28:25.233Z,80.63
2022-09-28T08:29:25.220Z,78.33
2022-09-28T08:30:25.294Z,79.96
2022-09-28T08:32:25.182Z,78.16
2022-09-28T08:33:25.172Z,80.30
2022-09-28T08:34:25.153Z,79.93
2022-09-28T08:35:25.140Z,80.17
2022-09-28T08:36:25.127Z,81.13
2022-09-28T08:37:25.113Z,80.31
2022-09-28T08:38:25.102Z,80.92
2022-09-28T08:39:25.086Z,81.64
2022-09-28T08:40:25.177Z,81.23
2022-09-28T08:41:25.060Z,81.74
2022-09-28T08:43:25.058Z,80.78
2022-09-28T08:44:25.043Z,80.37
2022-09-28T08:45:25.006Z,80.74
2022-09-28T08:46:27.029Z,80.24
2022-09-28T08:47:24.981Z,80.24
2022-09-28T08:48:24.968Z,80.74
2022-09-28T08:49:26.164Z,79.66
2022-09-28T08:50:24.942Z,80.31
2022-09-28T08:51:24.926Z,80.82
2022-09-28T08:52:24.916Z,80.72
2022-09-28T08:54:24.890Z,81.13
2022-09-28T08:55:24.875Z,80.88
2022-09-28T08:56:24.865Z,80.64
2022-09-28T08:57:24.851Z,79.01
2022-09-28T08:58:24.837Z,79.11
2022-09-28T08:59:24.850Z,79.42
2022-09-28T09:00:24.812Z,79.11
2022-09-28T09:01:24.870Z,79.21
2022-09-28T09:02:24.846Z,80.03
2022-09-28T09:03:24.772Z,78.30
2022-09-28T09:05:24.747Z,77.38
2022-09-28T09:06:24.735Z,77.78
2022-09-28T09:07:24.720Z,78.71
2022-09-28T09:08:24.708Z,76.97
2022-09-28T09:09:24.696Z,76.97
2022-09-28T09:10:24.682Z,76.53
2022-09-28T09:11:24.667Z,77.55
2022-09-28T09:12:24.655Z,77.24
2022-09-28T09:13:24.640Z,76.96
2022-09-28T09:14:24.628Z,76.45
2022-09-28T09:16:24.652Z,75.97
2022-09-28T09:17:24.585Z,75.40
2022-09-28T09:18:24.574Z,74.96
2022-09-28T09:19:24.562Z,73.80
2022-09-28T09:20:24.547Z,73.49
2022-09-28T09:21:24.534Z,73.22
2022-09-28T09:22:24.523Z,73.97
2022-09-28T09:23:24.510Z,73.36
2022-09-28T09:24:24.495Z,74.58
2022-09-28T09:25:24.483Z,73.66
2022-09-28T09:27:24.454Z,73.77
2022-09-28T09:28:24.444Z,72.71
2022-09-28T09:29:24.427Z,72.51
2022-09-28T09:30:25.233Z,71.36
2022-09-28T09:31:24.474Z,71.42
2022-09-28T09:32:24.389Z,70.55
2022-09-28T09:33:24.374Z,71.02
2022-09-28T09:34:24.362Z,68.59
2022-09-28T09:35:28.506Z,65.31
2022-09-28T09:36:24.355Z,65.31
2022-09-28T09:38:24.311Z,66.73
2022-09-28T09:39:24.294Z,67.47
2022-09-28T09:40:24.347Z,66.49
2022-09-28T09:41:24.267Z,68.04
2022-09-28T09:42:24.257Z,67.46
2022-09-28T09:43:27.987Z,68.61
2022-09-28T09:44:24.239Z,69.12
2022-09-28T09:45:24.216Z,69.87
2022-09-28T09:46:24.281Z,70.14
2022-09-28T09:47:24.213Z,69.60
2022-09-28T09:49:24.162Z,69.02
2022-09-28T09:50:24.153Z,70.98
2022-09-28T09:51:24.135Z,70.11
2022-09-28T09:52:24.224Z,68.99
2022-09-28T09:53:24.115Z,68.78
2022-09-28T09:54:24.101Z,69.09
2022-09-28T09:55:29.015Z,68.82
2022-09-28T09:56:24.078Z,70.31
2022-09-28T09:57:24.062Z,70.03
2022-09-28T09:58:24.051Z,71.25
2022-09-28T10:00:24.022Z,71.12
2022-09-28T10:01:24.050Z,70.78
2022-09-28T10:02:24.083Z,70.14
2022-09-28T10:03:24.006Z,67.46
2022-09-28T10:04:23.968Z,66.82
2022-09-28T10:05:23.957Z,66.72
2022-09-28T10:06:23.942Z,67.10
2022-09-28T10:07:23.929Z,66.49
2022-09-28T10:08:23.916Z,66.38
2022-09-28T10:09:23.901Z,65.95
2022-09-28T10:11:23.875Z,66.63
2022-09-28T10:12:23.864Z,65.41
2022-09-28T10:13:23.857Z,66.25
2022-09-28T10:14:23.840Z,66.15
2022-09-28T10:15:23.824Z,65.75
2022-09-28T10:16:23.868Z,65.91
2022-09-28T10:17:23.799Z,66.68
2022-09-28T10:18:23.788Z,68.41
2022-09-28T10:19:23.897Z,69.12
2022-09-28T10:20:23.764Z,69.46
2022-09-28T10:22:23.734Z,71.16
2022-09-28T10:23:23.718Z,70.85
2022-09-28T10:24:23.706Z,70.64
2022-09-28T10:25:23.693Z,72.24
2022-09-28T10:26:25.109Z,72.71
2022-09-28T10:27:23.666Z,73.02
2022-09-28T10:28:23.655Z,71.86
2022-09-28T10:29:23.641Z,71.73
2022-09-28T10:30:23.629Z,70.31
2022-09-28T10:31:23.615Z,70.68
2022-09-28T10:33:23.587Z,67.40
2022-09-28T10:34:23.576Z,66.08
2022-09-28T10:35:23.588Z,67.07
2022-09-28T10:36:23.549Z,66.35
2022-09-28T10:37:23.534Z,66.25
2022-09-28T10:38:23.524Z,66.35
2022-09-28T10:39:23.507Z,66.99
2022-09-28T10:40:23.523Z,66.88
2022-09-28T10:41:23.480Z,69.09
2022-09-28T10:42:23.471Z,71.12
2022-09-28T10:44:23.442Z,72.51
2022-09-28T10:45:23.431Z,73.40
2022-09-28T10:46:23.521Z,74.82
2022-09-28T10:47:23.403Z,74.01
2022-09-28T10:48:23.391Z,72.17
2022-09-28T10:49:23.375Z,70.92
2022-09-28T10:50:23.365Z,70.78
2022-09-28T10:51:23.374Z,69.94
2022-09-28T10:52:23.338Z,68.35
2022-09-28T10:53:23.323Z,63.06
2022-09-28T10:55:23.301Z,62.37
2022-09-28T10:56:23.285Z,61.66
2022-09-28T10:57:23.271Z,60.91
2022-09-28T10:58:23.258Z,62.18
2022-09-28T10:59:23.242Z,65.00
2022-09-28T11:00:23.232Z,65.37
2022-09-28T11:01:23.255Z,66.85
2022-09-28T11:02:23.248Z,69.26
2022-09-28T11:03:23.191Z,70.20
2022-09-28T11:04:23.180Z,70.64
2022-09-28T11:06:23.152Z,70.75
2022-09-28T11:07:23.159Z,71.25
2022-09-28T11:08:23.126Z,71.19
2022-09-28T11:09:25.327Z,71.80
2022-09-28T11:10:23.099Z,72.41
2022-09-28T11:11:23.084Z,72.58
2022-09-28T11:12:23.074Z,72.34
2022-09-28T11:13:23.059Z,71.63
2022-09-28T11:14:23.048Z,70.44
2022-09-28T11:15:23.033Z,70.85
2022-09-28T11:17:23.005Z,70.64
2022-09-28T11:18:22.997Z,70.34
2022-09-28T11:19:22.980Z,69.76
2022-09-28T11:20:27.379Z,69.15
2022-09-28T11:21:22.956Z,68.61
2022-09-28T11:22:22.941Z,67.63
2022-09-28T11:23:22.952Z,67.10
2022-09-28T11:24:23.221Z,66.02
2022-09-28T11:25:22.905Z,66.35
2022-09-28T11:26:22.887Z,64.36
2022-09-28T11:28:22.860Z,62.35
2022-09-28T11:29:22.850Z,62.99
2022-09-28T11:30:22.922Z,61.48
2022-09-28T11:31:22.823Z,59.68
2022-09-28T11:32:22.810Z,59.33
2022-09-28T11:33:22.801Z,60.93
2022-09-28T11:34:30.987Z,61.64
2022-09-28T11:35:22.771Z,60.60
2022-09-28T11:36:22.758Z,61.07
2022-09-28T11:37:22.744Z,59.89
2022-09-28T11:39:22.744Z,59.28
2022-09-28T11:40:22.755Z,60.69
2022-09-28T11:41:22.693Z,61.73
2022-09-28T11:42:22.679Z,61.70
2022-09-28T11:43:22.668Z,60.56
2022-09-28T11:44:22.655Z,61.93
2022-09-28T11:45:22.641Z,61.93
2022-09-28T11:46:22.743Z,60.56
2022-09-28T11:47:22.616Z,61.25
2022-09-28T11:48:22.601Z,62.44
2022-09-28T11:50:24.385Z,58.52
2022-09-28T11:51:22.561Z,58.19
2022-09-28T11:52:22.550Z,57.69
2022-09-28T11:53:22.539Z,59.36
2022-09-28T11:54:22.524Z,59.13
2022-09-28T11:55:22.535Z,59.71
2022-09-28T11:56:22.500Z,59.00
2022-09-28T11:57:22.488Z,59.49
2022-09-28T11:58:22.487Z,61.09
2022-09-28T11:59:22.477Z,63.21
2022-09-28T12:01:22.438Z,66.79
2022-09-28T12:02:22.686Z,65.71
2022-09-28T12:03:22.601Z,67.40
2022-09-28T12:04:22.395Z,67.90
2022-09-28T12:05:22.389Z,67.40
2022-09-28T12:06:22.368Z,63.36
2022-09-28T12:07:22.358Z,61.21
2022-09-28T12:08:22.344Z,62.56
2022-09-28T12:09:22.331Z,62.31
2022-09-28T12:10:22.314Z,63.45
2022-09-28T12:12:22.288Z,64.73
2022-09-28T12:13:22.277Z,64.91
2022-09-28T12:14:22.262Z,64.30
2022-09-28T12:15:22.249Z,63.79
2022-09-28T12:17:22.318Z,66.86
2022-09-28T12:18:22.210Z,68.95
2022-09-28T12:19:22.200Z,71.90
2022-09-28T12:20:22.198Z,71.46
2022-09-28T12:21:22.173Z,73.26
2022-09-28T12:23:22.158Z,69.94
2022-09-28T12:24:22.135Z,65.96
2022-09-28T12:25:22.123Z,63.09
2022-09-28T12:26:22.129Z,62.79
2022-09-28T12:27:22.118Z,62.35
2022-09-28T12:28:22.084Z,62.12
2022-09-28T12:29:22.071Z,61.95
2022-09-28T12:30:22.055Z,62.81
2022-09-28T12:31:22.123Z,61.77
2022-09-28T12:32:22.029Z,62.01
2022-09-28T12:34:22.001Z,57.73
2022-09-28T12:35:21.990Z,57.63
2022-09-28T12:36:21.975Z,57.43
2022-09-28T12:37:21.964Z,57.73
2022-09-28T12:38:21.949Z,56.95
2022-09-28T12:39:35.740Z,57.92
2022-09-28T12:40:21.985Z,57.54
2022-09-28T12:41:21.913Z,58.78
2022-09-28T12:42:21.898Z,58.81
2022-09-28T12:43:21.911Z,59.41
2022-09-28T12:45:21.860Z,61.32
2022-09-28T12:46:21.901Z,62.17
2022-09-28T12:47:21.834Z,61.86
2022-09-28T12:48:21.819Z,63.34
2022-09-28T12:50:07.542Z,64.15
2022-09-28T12:50:40.681Z,63.85
2022-09-28T12:51:23.780Z,64.05
2022-09-28T12:52:21.764Z,63.31
2022-09-28T12:53:21.758Z,62.63
2022-09-28T12:54:21.737Z,63.34
2022-09-28T12:56:21.911Z,63.61
2022-09-28T12:57:21.702Z,63.51
2022-09-28T12:58:21.689Z,63.11
2022-09-28T12:59:21.707Z,62.90
2022-09-28T13:00:21.661Z,63.07
2022-09-28T13:01:21.696Z,62.47
2022-09-28T13:02:21.678Z,62.87
2022-09-28T13:03:21.626Z,63.18
2022-09-28T13:04:21.609Z,62.95
2022-09-28T13:05:21.600Z,62.24
2022-09-28T13:07:21.576Z,61.70
2022-09-28T13:08:21.562Z,61.19
2022-09-28T13:09:21.559Z,61.50
2022-09-28T13:10:21.533Z,61.60
2022-09-28T13:11:21.523Z,62.24
2022-09-28T13:12:21.513Z,62.17
2022-09-28T13:13:21.494Z,63.21
2022-09-28T13:14:21.479Z,62.87
2022-09-28T13:15:21.497Z,62.84
2022-09-28T13:16:21.616Z,61.70
2022-09-28T13:18:21.429Z,60.10
2022-09-28T13:19:21.417Z,59.46
2022-09-28T13:20:21.404Z,58.92
2022-09-28T13:21:21.392Z,58.12
2022-09-28T13:22:21.376Z,58.75
2022-09-28T13:23:21.363Z,60.60
2022-09-28T13:24:32.141Z,59.74
2022-09-28T13:25:23.338Z,58.92
2022-09-28T13:26:21.322Z,59.33
2022-09-28T13:27:21.312Z,58.52
2022-09-28T13:29:21.286Z,60.73
2022-09-28T13:30:21.272Z,61.27
2022-09-28T13:31:21.284Z,61.44
2022-09-28T13:32:21.244Z,61.34
2022-09-28T13:33:21.231Z,59.66
2022-09-28T13:34:21.216Z,58.85
2022-09-28T13:35:21.211Z,59.33
2022-09-28T13:36:21.188Z,58.19
2022-09-28T13:37:21.189Z,58.80
2022-09-28T13:38:21.160Z,58.59
2022-09-28T13:40:21.186Z,59.36
2022-09-28T13:41:21.121Z,59.66
2022-09-28T13:42:21.107Z,59.56
2022-09-28T13:43:21.094Z,58.95
2022-09-28T13:44:21.078Z,58.45
2022-09-28T13:45:21.086Z,58.22
2022-09-28T13:46:21.105Z,57.48
2022-09-28T13:47:21.283Z,58.09
2022-09-28T13:48:21.024Z,58.63
2022-09-28T13:49:21.013Z,58.63
2022-09-28T13:51:20.987Z,60.07
2022-09-28T13:52:20.972Z,61.04
2022-09-28T13:53:20.959Z,62.54
2022-09-28T13:54:20.945Z,63.79
2022-09-28T13:55:20.937Z,63.51
2022-09-28T13:56:20.918Z,64.22
2022-09-28T13:57:20.905Z,64.42
2022-09-28T13:58:20.890Z,64.63
2022-09-28T13:59:20.880Z,64.76
2022-09-28T14:00:20.862Z,64.66
2022-09-28T14:02:20.918Z,65.00
2022-09-28T14:03:20.849Z,64.16
2022-09-28T14:04:21.064Z,63.73
2022-09-28T14:05:20.805Z,62.81
2022-09-28T14:06:20.790Z,62.21
2022-09-28T14:07:20.807Z,61.77
2022-09-28T14:08:20.761Z,61.54
2022-09-28T14:09:20.749Z,61.34
2022-09-28T14:10:20.734Z,62.05